createdAt,value
2019-04-05T00:00:07.439Z,5.35
2019-04-05T00:02:36.095Z,5.30
2019-04-05T00:05:04.929Z,5.28
2019-04-05T00:07:33.728Z,5.30
2019-04-05T00:10:02.894Z,5.34
2019-04-05T00:12:31.634Z,5.41
2019-04-05T00:15:00.173Z,5.27
2019-04-05T00:17:28.761Z,5.25
2019-04-05T00:19:57.292Z,5.21
2019-04-05T00:22:25.836Z,5.23
2019-04-05T00:24:54.420Z,5.20
2019-04-05T00:27:22.976Z,5.20
2019-04-05T00:29:51.629Z,5.15
2019-04-05T00:32:20.416Z,5.09
2019-04-05T00:34:48.944Z,5.18
2019-04-05T00:37:17.513Z,5.17
2019-04-05T00:39:46.170Z,5.14
2019-04-05T00:42:14.747Z,5.14
2019-04-05T00:44:43.367Z,5.08
2019-04-05T00:47:12.228Z,5.11
2019-04-05T00:49:40.975Z,5.03
2019-04-05T00:52:09.619Z,4.98
2019-04-05T00:54:38.268Z,5.09
2019-04-05T00:57:07.010Z,5.08
2019-04-05T00:59:35.765Z,5.02
2019-04-05T01:02:04.518Z,5.02
2019-04-05T01:04:33.045Z,4.97
2019-04-05T01:07:01.789Z,4.99
2019-04-05T01:09:30.467Z,4.91
2019-04-05T01:11:59.101Z,4.96
2019-04-05T01:14:28.032Z,5.03
2019-04-05T01:16:56.924Z,5.24
2019-04-05T01:19:29.505Z,5.23
2019-04-05T01:22:01.867Z,5.16
2019-04-05T01:24:30.602Z,5.16
2019-04-05T01:26:59.593Z,5.16
2019-04-05T01:29:28.332Z,5.18
2019-04-05T01:31:57.078Z,5.16
2019-04-05T01:34:25.824Z,5.13
2019-04-05T01:36:54.980Z,5.05
2019-04-05T01:39:23.727Z,5.02
2019-04-05T01:41:52.897Z,4.95
2019-04-05T01:44:21.523Z,4.94
2019-04-05T01:46:50.277Z,5.05
2019-04-05T01:49:19.105Z,4.98
2019-04-05T01:51:48.144Z,4.97
2019-04-05T01:54:16.880Z,5.00
2019-04-05T01:56:45.664Z,4.95
2019-04-05T01:59:14.215Z,5.01
2019-04-05T02:01:42.970Z,4.96
2019-04-05T02:04:11.674Z,4.93
2019-04-05T02:06:40.498Z,5.04
2019-04-05T02:09:10.427Z,5.00
2019-04-05T02:11:39.180Z,4.95
2019-04-05T02:14:08.029Z,5.00
2019-04-05T02:16:36.778Z,4.95
2019-04-05T02:19:05.761Z,5.00
2019-04-05T02:21:34.481Z,5.01
2019-04-05T02:24:03.660Z,5.00
2019-04-05T02:26:32.613Z,5.02
2019-04-05T02:29:01.386Z,5.07
2019-04-05T02:31:30.096Z,5.05
2019-04-05T02:33:58.874Z,5.06
2019-04-05T02:36:27.627Z,5.06
2019-04-05T02:38:56.385Z,5.05
2019-04-05T02:41:26.448Z,5.10
2019-04-05T02:43:57.285Z,5.02
2019-04-05T02:46:29.236Z,5.04
2019-04-05T02:49:00.995Z,5.03
2019-04-05T02:51:31.580Z,4.96
2019-04-05T02:54:01.736Z,5.00
2019-04-05T02:56:32.085Z,5.04
2019-04-05T02:59:02.027Z,4.96
2019-04-05T03:01:32.011Z,4.94
2019-04-05T03:04:01.662Z,5.12
2019-04-05T03:06:31.090Z,5.11
2019-04-05T03:09:00.759Z,5.15
2019-04-05T03:11:31.803Z,5.04
2019-04-05T03:14:02.551Z,5.04
2019-04-05T03:16:40.759Z,5.01
2019-04-05T03:19:12.150Z,5.04
2019-04-05T03:21:45.123Z,5.01
2019-04-05T03:24:17.472Z,4.94
2019-04-05T03:26:52.335Z,4.95
2019-04-05T03:29:21.394Z,5.12
2019-04-05T03:31:50.933Z,5.13
2019-04-05T03:34:20.889Z,5.12
2019-04-05T03:36:51.839Z,5.09
2019-04-05T03:39:22.262Z,5.07
2019-04-05T03:41:52.057Z,5.05
2019-04-05T03:44:23.090Z,5.03
2019-04-05T03:46:56.831Z,5.00
2019-04-05T03:49:23.577Z,5.02
2019-04-05T03:51:52.679Z,5.02
2019-04-05T03:54:21.934Z,4.99
2019-04-05T03:56:50.884Z,4.98
2019-04-05T03:59:19.923Z,5.11
2019-04-05T04:01:48.674Z,5.09
2019-04-05T04:04:17.545Z,5.11
2019-04-05T04:06:46.297Z,5.12
2019-04-05T04:09:15.057Z,5.14
2019-04-05T04:11:43.798Z,5.14
2019-04-05T04:14:12.952Z,5.16
2019-04-05T04:16:41.842Z,5.12
2019-04-05T04:19:11.278Z,5.09
2019-04-05T04:21:47.737Z,5.07
2019-04-05T04:24:17.952Z,5.12
2019-04-05T04:26:46.670Z,5.14
2019-04-05T04:29:15.551Z,5.07
2019-04-05T04:31:44.504Z,5.14
2019-04-05T04:34:13.491Z,5.08
2019-04-05T04:36:42.326Z,5.08
2019-04-05T04:39:11.595Z,5.07
2019-04-05T04:41:40.363Z,5.20
2019-04-05T04:44:09.102Z,5.24
2019-04-05T04:46:38.777Z,5.31
2019-04-05T04:49:07.716Z,5.48
2019-04-05T04:51:36.951Z,5.49
2019-04-05T04:54:05.927Z,5.46
2019-04-05T04:56:34.663Z,5.30
2019-04-05T04:59:03.519Z,5.22
2019-04-05T05:01:32.465Z,5.18
2019-04-05T05:04:01.543Z,5.15
2019-04-05T05:06:30.616Z,5.14
2019-04-05T05:08:59.639Z,5.20
2019-04-05T05:11:28.370Z,5.17
2019-04-05T05:13:57.254Z,5.19
2019-04-05T05:16:26.080Z,5.23
2019-04-05T05:18:55.022Z,5.24
2019-04-05T05:21:24.568Z,5.16
2019-04-05T05:23:53.428Z,5.27
2019-04-05T05:26:22.175Z,5.30
2019-04-05T05:28:51.433Z,5.22
2019-04-05T05:31:20.388Z,5.15
2019-04-05T05:33:49.349Z,5.17
2019-04-05T05:36:18.719Z,5.10
2019-04-05T05:38:47.591Z,5.10
2019-04-05T05:41:16.337Z,5.11
2019-04-05T05:43:44.988Z,5.10
2019-04-05T05:46:13.756Z,5.22
2019-04-05T05:48:43.019Z,5.12
2019-04-05T05:51:12.795Z,5.10
2019-04-05T05:53:41.483Z,5.15
2019-04-05T05:56:10.071Z,5.18
2019-04-05T05:58:38.647Z,5.28
2019-04-05T06:01:07.248Z,5.30
2019-04-05T06:03:35.875Z,5.43
2019-04-05T06:06:04.980Z,5.38
2019-04-05T06:08:33.783Z,5.48
2019-04-05T06:11:02.432Z,5.52
2019-04-05T06:13:31.071Z,5.59
2019-04-05T06:15:59.783Z,5.72
2019-04-05T06:18:28.321Z,5.75
2019-04-05T06:20:56.966Z,5.75
2019-04-05T06:23:33.546Z,5.77
2019-04-05T06:25:56.717Z,5.90
2019-04-05T06:28:25.281Z,6.18
2019-04-05T06:30:54.207Z,6.14
2019-04-05T06:33:31.389Z,6.31
2019-04-05T06:35:53.453Z,6.23
2019-04-05T06:38:22.035Z,6.26
2019-04-05T06:40:50.765Z,6.46
2019-04-05T06:43:19.531Z,6.48
2019-04-05T06:45:48.559Z,6.21
2019-04-05T06:48:19.408Z,6.05
2019-04-05T06:50:47.950Z,6.18
2019-04-05T06:53:16.681Z,6.21
2019-04-05T06:55:45.343Z,6.48
2019-04-05T06:58:19.864Z,6.63
2019-04-05T07:00:56.431Z,6.51
2019-04-05T07:03:15.062Z,6.59
2019-04-05T07:05:43.707Z,6.63
2019-04-05T07:08:12.445Z,6.75
2019-04-05T07:10:41.277Z,6.67
2019-04-05T07:13:10.059Z,6.51
2019-04-05T07:15:38.643Z,6.79
2019-04-05T07:18:07.643Z,6.55
2019-04-05T07:20:36.187Z,6.65
2019-04-05T07:23:04.839Z,6.66
2019-04-05T07:25:33.764Z,6.83
2019-04-05T07:28:02.602Z,7.06
2019-04-05T07:30:32.603Z,7.35
2019-04-05T07:33:01.340Z,7.38
2019-04-05T07:35:33.827Z,7.67
2019-04-05T07:38:00.498Z,7.81
2019-04-05T07:40:29.299Z,8.14
2019-04-05T07:42:58.028Z,8.19
2019-04-05T07:45:27.995Z,8.34
2019-04-05T07:47:56.687Z,8.61
2019-04-05T07:50:25.520Z,8.33
2019-04-05T07:52:54.178Z,8.07
2019-04-05T07:55:22.844Z,7.93
2019-04-05T07:57:51.550Z,8.16
2019-04-05T08:00:42.763Z,8.33
2019-04-05T08:03:11.735Z,8.42
2019-04-05T08:05:40.432Z,8.55
2019-04-05T08:08:13.184Z,8.05
2019-04-05T08:10:43.883Z,8.19
2019-04-05T08:13:14.229Z,7.93
2019-04-05T08:15:42.917Z,7.70
2019-04-05T08:18:11.691Z,8.52
2019-04-05T08:20:40.382Z,8.60
2019-04-05T08:23:09.154Z,8.13
2019-04-05T08:25:40.975Z,8.48
2019-04-05T08:28:08.494Z,7.93
2019-04-05T08:30:37.072Z,8.42
2019-04-05T08:33:05.708Z,8.46
2019-04-05T08:35:34.279Z,8.49
2019-04-05T08:38:03.128Z,8.55
2019-04-05T08:40:31.677Z,8.83
2019-04-05T08:43:01.556Z,9.63
2019-04-05T08:45:30.208Z,9.59
2019-04-05T08:47:58.874Z,9.15
2019-04-05T08:50:27.501Z,9.24
2019-04-05T08:52:56.188Z,9.10
2019-04-05T08:55:24.953Z,9.17
2019-04-05T08:57:53.531Z,9.05
2019-04-05T09:00:22.327Z,8.46
2019-04-05T09:02:51.010Z,9.07
2019-04-05T09:05:19.756Z,9.35
2019-04-05T09:07:48.344Z,9.39
2019-04-05T09:10:17.009Z,9.04
2019-04-05T09:12:45.569Z,8.71
2019-04-05T09:15:14.252Z,8.32
2019-04-05T09:17:42.813Z,8.13
2019-04-05T09:20:12.041Z,8.47
2019-04-05T09:22:40.609Z,8.67
2019-04-05T09:25:09.467Z,9.16
2019-04-05T09:27:38.146Z,8.82
2019-04-05T09:30:07.522Z,9.18
2019-04-05T09:32:36.687Z,9.23
2019-04-05T09:35:05.593Z,9.26
2019-04-05T09:37:34.164Z,8.75
2019-04-05T09:40:03.921Z,8.79
2019-04-05T09:42:32.585Z,8.59
2019-04-05T09:45:01.363Z,8.94
2019-04-05T09:47:30.144Z,8.98
2019-04-05T09:49:58.691Z,8.68
2019-04-05T09:52:27.476Z,9.14
2019-04-05T09:54:56.077Z,9.51
2019-04-05T09:57:24.794Z,8.51
2019-04-05T09:59:53.557Z,9.15
2019-04-05T10:02:22.128Z,8.72
2019-04-05T10:04:50.852Z,8.78
2019-04-05T10:07:19.443Z,8.98
2019-04-05T10:09:50.310Z,8.64
2019-04-05T10:12:18.452Z,8.51
2019-04-05T10:14:46.989Z,8.66
2019-04-05T10:17:15.537Z,8.73
2019-04-05T10:19:49.857Z,8.43
2019-04-05T10:22:14.549Z,8.77
2019-04-05T10:24:43.389Z,8.56
2019-04-05T10:27:12.060Z,8.78
2019-04-05T10:29:40.637Z,9.03
2019-04-05T10:32:09.206Z,8.90
2019-04-05T10:34:37.759Z,9.38
2019-04-05T10:37:06.448Z,8.92
2019-04-05T10:39:34.989Z,8.89
2019-04-05T10:42:05.545Z,8.90
2019-04-05T10:44:34.114Z,8.69
2019-04-05T10:47:03.367Z,8.73
2019-04-05T10:49:32.105Z,8.82
2019-04-05T10:52:00.840Z,9.22
2019-04-05T10:54:29.809Z,8.42
2019-04-05T10:56:58.395Z,8.42
2019-04-05T10:59:27.098Z,8.95
2019-04-05T11:01:55.658Z,8.46
2019-04-05T11:04:24.342Z,8.64
2019-04-05T11:06:52.898Z,9.10
2019-04-05T11:09:21.572Z,8.82
2019-04-05T11:11:50.316Z,8.77
2019-04-05T11:14:18.952Z,8.90
2019-04-05T11:16:57.958Z,8.98
2019-04-05T11:19:18.153Z,9.02
2019-04-05T11:21:48.493Z,9.69
2019-04-05T11:24:17.452Z,10.44
2019-04-05T11:26:46.101Z,11.09
2019-04-05T11:29:14.887Z,10.86
2019-04-05T11:31:55.917Z,10.02
2019-04-05T11:34:14.420Z,9.40
2019-04-05T11:36:43.171Z,9.62
2019-04-05T11:39:11.740Z,9.63
2019-04-05T11:41:42.082Z,9.53
2019-04-05T11:44:11.038Z,9.17
2019-04-05T11:46:39.770Z,9.35
2019-04-05T11:49:08.425Z,9.59
2019-04-05T11:51:37.339Z,8.79
2019-04-05T11:54:05.991Z,9.34
2019-04-05T11:56:35.067Z,8.99
2019-04-05T11:59:06.252Z,8.82
2019-04-05T12:01:43.415Z,8.85
2019-04-05T12:04:12.233Z,8.63
2019-04-05T12:06:40.773Z,8.81
2019-04-05T12:09:09.491Z,8.93
2019-04-05T12:11:38.256Z,9.06
2019-04-05T12:14:06.904Z,8.95
2019-04-05T12:16:36.207Z,8.62
2019-04-05T12:19:05.486Z,8.69
2019-04-05T12:21:34.777Z,8.87
2019-04-05T12:24:04.244Z,8.54
2019-04-05T12:26:34.472Z,9.05
2019-04-05T12:29:03.599Z,9.35
2019-04-05T12:31:32.261Z,9.11
2019-04-05T12:34:00.969Z,8.90
2019-04-05T12:36:29.666Z,9.05
2019-04-05T12:38:58.239Z,8.95
2019-04-05T12:41:26.808Z,9.39
2019-04-05T12:43:55.461Z,9.04
2019-04-05T12:46:24.138Z,8.98
2019-04-05T12:48:52.726Z,8.94
2019-04-05T12:51:21.488Z,9.47
2019-04-05T12:53:50.290Z,9.63
2019-04-05T12:56:19.147Z,9.74
2019-04-05T12:58:48.003Z,9.50
2019-04-05T13:01:16.870Z,9.25
2019-04-05T13:03:46.062Z,9.03
2019-04-05T13:06:15.288Z,9.54
2019-04-05T13:08:43.914Z,9.42
2019-04-05T13:11:12.541Z,9.32
2019-04-05T13:13:41.056Z,9.15
2019-04-05T13:16:10.968Z,8.97
2019-04-05T13:18:39.714Z,9.12
2019-04-05T13:21:15.042Z,9.45
2019-04-05T13:23:39.032Z,9.44
2019-04-05T13:26:11.505Z,9.62
2019-04-05T13:28:38.719Z,9.37
2019-04-05T13:31:07.318Z,9.16
2019-04-05T13:33:35.962Z,8.82
2019-04-05T13:36:04.641Z,8.62
2019-04-05T13:38:33.283Z,8.48
2019-04-05T13:41:02.216Z,8.72
2019-04-05T13:43:31.882Z,9.03
2019-04-05T13:46:01.488Z,9.16
2019-04-05T13:48:30.463Z,9.15
2019-04-05T13:50:59.221Z,9.17
2019-04-05T13:53:27.789Z,9.17
2019-04-05T13:55:56.401Z,8.98
2019-04-05T13:58:24.935Z,8.89
2019-04-05T14:00:53.642Z,9.20
2019-04-05T14:03:22.185Z,9.11
2019-04-05T14:05:54.002Z,9.05
2019-04-05T14:08:21.655Z,8.94
2019-04-05T14:10:50.325Z,8.84
2019-04-05T14:13:19.580Z,8.77
2019-04-05T14:15:48.257Z,8.86
2019-04-05T14:18:16.780Z,8.69
2019-04-05T14:20:45.433Z,8.62
2019-04-05T14:23:13.986Z,8.47
2019-04-05T14:25:42.757Z,8.40
2019-04-05T14:28:11.859Z,8.48
2019-04-05T14:30:40.802Z,8.49
2019-04-05T14:33:09.544Z,8.48
2019-04-05T14:35:38.201Z,8.55
2019-04-05T14:38:06.740Z,8.28
2019-04-05T14:40:35.394Z,8.44
2019-04-05T14:43:04.140Z,8.67
2019-04-05T14:45:32.800Z,8.97
2019-04-05T14:48:01.495Z,8.84
2019-04-05T14:50:30.259Z,8.35
2019-04-05T14:53:01.203Z,8.10
2019-04-05T14:55:29.870Z,8.27
2019-04-05T14:57:59.125Z,8.07
2019-04-05T15:00:27.905Z,8.16
2019-04-05T15:02:56.475Z,8.05
2019-04-05T15:05:25.035Z,8.11
2019-04-05T15:07:54.968Z,8.28
2019-04-05T15:10:25.283Z,8.41
2019-04-05T15:12:54.382Z,8.29
2019-04-05T15:15:23.137Z,8.03
2019-04-05T15:17:51.932Z,7.93
2019-04-05T15:20:20.881Z,7.99
2019-04-05T15:22:49.434Z,7.90
2019-04-05T15:25:21.574Z,7.74
2019-04-05T15:27:51.259Z,8.05
2019-04-05T15:30:19.742Z,7.83
2019-04-05T15:32:51.193Z,7.95
2019-04-05T15:35:18.928Z,7.93
2019-04-05T15:37:47.517Z,7.73
2019-04-05T15:40:16.366Z,7.64
2019-04-05T15:42:44.912Z,7.71
2019-04-05T15:45:16.053Z,7.90
2019-04-05T15:47:44.472Z,8.06
2019-04-05T15:50:13.338Z,8.21
2019-04-05T15:52:44.409Z,8.01
2019-04-05T15:55:13.308Z,8.02
2019-04-05T15:57:42.011Z,8.05
2019-04-05T16:00:11.997Z,7.82
2019-04-05T16:02:42.922Z,7.80
2019-04-05T16:05:12.243Z,7.65
2019-04-05T16:07:40.979Z,7.81
2019-04-05T16:10:10.381Z,7.86
2019-04-05T16:12:39.147Z,7.53
2019-04-05T16:15:08.213Z,7.82
2019-04-05T16:17:37.185Z,7.58
2019-04-05T16:20:07.167Z,7.44
2019-04-05T16:22:36.099Z,7.39
2019-04-05T16:25:05.790Z,7.44
2019-04-05T16:27:34.364Z,7.57
2019-04-05T16:30:04.178Z,7.55
2019-04-05T16:32:33.096Z,7.62
2019-04-05T16:35:01.678Z,7.57
2019-04-05T16:37:30.225Z,7.52
2019-04-05T16:39:58.856Z,7.46
2019-04-05T16:42:27.633Z,7.37
2019-04-05T16:44:56.405Z,7.32
2019-04-05T16:47:25.163Z,7.30
2019-04-05T16:49:53.926Z,7.32
2019-04-05T16:52:22.519Z,7.23
2019-04-05T16:54:51.066Z,7.27
2019-04-05T16:57:19.769Z,7.27
2019-04-05T16:59:48.537Z,7.19
2019-04-05T17:02:17.217Z,7.31
2019-04-05T17:04:45.791Z,7.52
2019-04-05T17:07:14.344Z,7.46
2019-04-05T17:09:42.899Z,7.19
2019-04-05T17:12:11.582Z,7.29
2019-04-05T17:14:40.335Z,7.25
2019-04-05T17:17:09.007Z,7.26
2019-04-05T17:19:37.576Z,7.39
2019-04-05T17:22:06.218Z,7.25
2019-04-05T17:24:34.761Z,7.15
2019-04-05T17:27:03.690Z,7.23
2019-04-05T17:29:32.373Z,7.24
2019-04-05T17:32:01.039Z,7.16
2019-04-05T17:34:29.639Z,7.19
2019-04-05T17:36:58.303Z,7.13
2019-04-05T17:39:26.847Z,7.25
2019-04-05T17:41:55.527Z,7.28
2019-04-05T17:44:24.071Z,7.32
2019-04-05T17:46:52.629Z,7.39
2019-04-05T17:49:21.183Z,7.33
2019-04-05T17:51:49.828Z,7.25
2019-04-05T17:54:18.473Z,7.31
2019-04-05T17:56:47.290Z,7.18
2019-04-05T17:59:16.024Z,7.15
2019-04-05T18:01:44.788Z,7.19
2019-04-05T18:04:13.472Z,7.18
2019-04-05T18:06:42.014Z,7.35
2019-04-05T18:09:10.895Z,7.28
2019-04-05T18:11:39.681Z,7.45
2019-04-05T18:14:08.263Z,7.46
2019-04-05T18:16:36.819Z,7.36
2019-04-05T18:19:05.496Z,7.37
2019-04-05T18:21:34.038Z,7.34
2019-04-05T18:24:02.787Z,7.38
2019-04-05T18:26:31.457Z,7.36
2019-04-05T18:29:00.123Z,7.20
2019-04-05T18:31:29.462Z,7.20
2019-04-05T18:33:58.036Z,7.16
2019-04-05T18:36:26.675Z,7.25
2019-04-05T18:38:55.286Z,7.09
2019-04-05T18:41:24.068Z,7.11
2019-04-05T18:43:52.587Z,7.06
2019-04-05T18:46:21.233Z,7.12
2019-04-05T18:48:49.938Z,7.16
2019-04-05T18:51:18.471Z,7.17
2019-04-05T18:53:47.210Z,7.07
2019-04-05T18:56:15.767Z,7.01
2019-04-05T18:58:44.560Z,6.96
2019-04-05T19:01:13.225Z,7.00
2019-04-05T19:03:41.809Z,6.96
2019-04-05T19:06:10.447Z,7.11
2019-04-05T19:08:40.169Z,7.11
2019-04-05T19:11:08.879Z,7.20
2019-04-05T19:13:37.536Z,7.04
2019-04-05T19:16:06.366Z,7.00
2019-04-05T19:18:35.349Z,7.02
2019-04-05T19:21:04.256Z,7.12
2019-04-05T19:23:32.932Z,7.02
2019-04-05T19:26:01.625Z,6.98
2019-04-05T19:28:30.407Z,7.04
2019-04-05T19:48:35.278Z,7.21
2019-04-05T19:51:04.111Z,7.14
2019-04-05T19:53:32.766Z,7.03
2019-04-05T19:56:01.657Z,7.09
2019-04-05T19:58:30.224Z,7.14
2019-04-05T20:00:59.284Z,7.19
2019-04-05T20:03:28.068Z,7.12
2019-04-05T20:05:56.820Z,7.20
2019-04-05T20:08:25.487Z,7.20
2019-04-05T20:10:54.362Z,7.18
2019-04-05T20:13:23.103Z,7.00
2019-04-05T20:15:51.648Z,6.93
2019-04-05T20:18:20.337Z,6.98
2019-04-05T20:20:48.884Z,6.90
2019-04-05T20:23:17.539Z,6.93
2019-04-05T20:25:46.208Z,6.92
2019-04-05T20:28:14.748Z,6.99
2019-04-05T20:30:43.400Z,6.99
2019-04-05T20:33:11.978Z,6.99
2019-04-05T20:35:40.628Z,6.96
2019-04-05T20:38:09.299Z,6.96
2019-04-05T20:40:37.946Z,6.93
2019-04-05T20:43:06.615Z,6.94
2019-04-05T20:45:35.379Z,7.04
2019-04-05T20:48:04.065Z,6.96
2019-04-05T20:50:32.716Z,6.99
2019-04-05T20:53:01.410Z,6.98
2019-04-05T20:55:30.029Z,7.15
2019-04-05T20:57:58.670Z,7.04
2019-04-05T21:00:27.322Z,7.04
2019-04-05T21:02:55.910Z,6.98
2019-04-05T21:05:25.475Z,6.96
2019-04-05T21:07:54.541Z,6.97
2019-04-05T21:10:23.117Z,6.99
2019-04-05T21:12:51.651Z,6.99
2019-04-05T21:15:20.220Z,7.02
2019-04-05T21:17:49.204Z,7.09
2019-04-05T21:20:17.971Z,7.22
2019-04-05T21:22:46.504Z,7.36
2019-04-05T21:25:15.231Z,7.34
2019-04-05T21:27:43.775Z,7.35
2019-04-05T21:30:14.057Z,7.36
2019-04-05T21:32:42.756Z,7.26
2019-04-05T21:35:11.409Z,7.13
2019-04-05T21:37:39.947Z,7.16
2019-04-05T21:40:08.625Z,7.11
2019-04-05T21:42:37.272Z,7.11
2019-04-05T21:45:06.071Z,7.18
2019-04-05T21:47:34.795Z,7.11
2019-04-05T21:50:04.344Z,7.02
2019-04-05T21:52:32.882Z,7.18
2019-04-05T21:55:01.558Z,7.08
2019-04-05T21:57:30.108Z,7.10
2019-04-05T21:59:58.665Z,7.08
2019-04-05T22:02:27.447Z,7.32
2019-04-05T22:04:56.192Z,7.18
2019-04-05T22:07:24.840Z,7.15
2019-04-05T22:09:53.506Z,7.16
2019-04-05T22:12:22.036Z,7.01
2019-04-05T22:14:50.784Z,7.11
2019-04-05T22:17:19.464Z,7.19
2019-04-05T22:19:48.098Z,7.12
2019-04-05T22:22:16.649Z,7.11
2019-04-05T22:24:45.230Z,7.18
2019-04-05T22:27:13.794Z,7.18
2019-04-05T22:29:42.362Z,7.24
2019-04-05T22:32:11.660Z,7.16
2019-04-05T22:34:40.396Z,7.27
2019-04-05T22:37:08.965Z,7.16
2019-04-05T22:39:37.546Z,7.22
2019-04-05T22:42:06.095Z,7.21
2019-04-05T22:44:39.887Z,7.08
2019-04-05T22:47:05.119Z,7.23
2019-04-05T22:49:33.662Z,7.12
2019-04-05T22:52:02.295Z,7.20
2019-04-05T22:54:30.922Z,7.13
2019-04-05T22:56:59.469Z,7.00
2019-04-05T22:59:28.192Z,7.04
2019-04-05T23:01:56.829Z,7.07
2019-04-05T23:04:25.468Z,7.26
2019-04-05T23:06:54.049Z,7.12
2019-04-05T23:09:22.812Z,7.09
2019-04-05T23:11:51.458Z,7.19
2019-04-05T23:14:20.024Z,7.21
2019-04-05T23:16:48.799Z,7.20
2019-04-05T23:19:17.368Z,7.12
2019-04-05T23:21:45.913Z,7.14
2019-04-05T23:24:14.604Z,7.10
2019-04-05T23:26:43.138Z,7.22
2019-04-05T23:29:11.863Z,7.13
2019-04-05T23:31:40.435Z,7.14
2019-04-05T23:34:09.001Z,7.40
2019-04-05T23:36:37.653Z,7.35
2019-04-05T23:39:06.416Z,7.19
2019-04-05T23:41:35.066Z,7.14
2019-04-05T23:44:03.799Z,7.16
2019-04-05T23:46:32.394Z,7.16
2019-04-05T23:49:00.938Z,7.14
2019-04-05T23:51:29.516Z,7.04
2019-04-05T23:53:58.171Z,7.03
2019-04-05T23:56:26.827Z,7.12
2019-04-05T23:58:55.374Z,7.08
